Hauptseite
METAR-TAF:

METAR-TAF

Flughäfen :

Flughafen Amsterdam Schiphol

Amsterdam, Niederlande

Breite: 52-18N, Länge: 004-46E, Höhe: -4 m

Beobachtung

Neuester Wetterbericht von vor 9 Minuten, um 07:55 UTC
Wind 11 kt aus Ost/Nordost
Temperatur 21°C
Luftfeuchtigkeit 64%
Luftdruck 1018 hPa
Sichtweite 10 km oder mehr
keine Wolken unter 1500 m und keine Kumulonimbus oder Gewitterwolken

METAR: EHAM 270755Z 06011KT CAVOK 21/14 Q1018 NOSIG

Zeit: 10:04 (08:04 UTC)

Prognose

Neuester Wetterbericht von vor 3 Stunden und 44 Minuten, um 04:20 UTC
Gültige Prognose vom 27 um 06 UTC bis 28 um 12 UTC
Wind 11 kt aus Ost/Nordost
Sichtweite 10 km oder mehr
keine Wolken unter 1500 m und keine Kumulonimbus oder Gewitterwolken
Übergehend zu
vom 27 um 17 UTC bis 27 um 20 UTC
Wind 5 kt aus Ost

TAF: EHAM 270420Z 2706/2812 07011KT CAVOK BECMG 2717/2720 10005KT

Wetterbeobachtungen und Prognosen von mehr als 4000 Flughäfen (METAR und TAF Bericht).

Die verfügbaren Stationen werden durch gelbe und rote Markierungen auf der Karte dargestellt.

Führen Sie die Maus auf sie, um den Namen der Station zu sehen.

Darauf klicken, um die Beobachtung von Wetterbeobachtungen und Prognosen zu sehen.

Um die Karte zu ändern : klicken Sie auf den grünen Tasten mit einem schwarzen Kreuz Zum Vergrößern, auf den grünen Button mit einem Gedankenstrich zu verkleinern, oder auf die grünen Pfeile für benachbarte Karten.


METAR-TAF: